sensor_id;sensor_type;location;lat;lon;timestamp;temperature;humidity
9965;DHT22;5023;53.554;9.964;2023-07-13T00:03:05;18.10;99.90
9965;DHT22;5023;53.554;9.964;2023-07-13T00:08:08;18.00;99.90
9965;DHT22;5023;53.554;9.964;2023-07-13T00:13:13;18.10;99.90
9965;DHT22;5023;53.554;9.964;2023-07-13T00:18:15;18.00;99.90
9965;DHT22;5023;53.554;9.964;2023-07-13T00:23:17;17.90;99.90
9965;DHT22;5023;53.554;9.964;2023-07-13T00:28:20;18.00;99.90
9965;DHT22;5023;53.554;9.964;2023-07-13T00:33:22;17.90;99.90
9965;DHT22;5023;53.554;9.964;2023-07-13T00:38:24;17.90;99.90
9965;DHT22;5023;53.554;9.964;2023-07-13T00:43:28;17.90;99.90
9965;DHT22;5023;53.554;9.964;2023-07-13T00:48:34;17.80;99.90
9965;DHT22;5023;53.554;9.964;2023-07-13T00:53:38;17.90;99.90
9965;DHT22;5023;53.554;9.964;2023-07-13T00:58:41;18.00;99.90
9965;DHT22;5023;53.554;9.964;2023-07-13T01:03:44;18.00;99.90
9965;DHT22;5023;53.554;9.964;2023-07-13T01:08:47;18.00;99.90
9965;DHT22;5023;53.554;9.964;2023-07-13T01:13:50;18.00;99.90
9965;DHT22;5023;53.554;9.964;2023-07-13T01:18:52;17.90;99.90
9965;DHT22;5023;53.554;9.964;2023-07-13T01:23:56;17.80;99.90
9965;DHT22;5023;53.554;9.964;2023-07-13T01:28:58;17.80;99.90
9965;DHT22;5023;53.554;9.964;2023-07-13T01:33:59;17.90;99.90
9965;DHT22;5023;53.554;9.964;2023-07-13T01:39:03;17.80;99.90
9965;DHT22;5023;53.554;9.964;2023-07-13T01:44:05;17.70;99.90
9965;DHT22;5023;53.554;9.964;2023-07-13T01:49:07;17.70;99.90
9965;DHT22;5023;53.554;9.964;2023-07-13T01:54:10;17.70;99.90
9965;DHT22;5023;53.554;9.964;2023-07-13T01:59:12;17.60;99.90
9965;DHT22;5023;53.554;9.964;2023-07-13T02:04:14;17.60;99.90
9965;DHT22;5023;53.554;9.964;2023-07-13T02:09:17;17.60;99.90
9965;DHT22;5023;53.554;9.964;2023-07-13T02:14:19;17.50;99.90
9965;DHT22;5023;53.554;9.964;2023-07-13T02:19:21;17.40;99.90
9965;DHT22;5023;53.554;9.964;2023-07-13T02:24:24;17.40;99.90
9965;DHT22;5023;53.554;9.964;2023-07-13T02:29:27;17.40;99.90
9965;DHT22;5023;53.554;9.964;2023-07-13T02:34:29;17.30;99.90
9965;DHT22;5023;53.554;9.964;2023-07-13T02:39:32;17.20;99.90
9965;DHT22;5023;53.554;9.964;2023-07-13T02:44:34;17.20;99.90
9965;DHT22;5023;53.554;9.964;2023-07-13T02:49:36;17.20;99.90
9965;DHT22;5023;53.554;9.964;2023-07-13T02:54:39;17.20;99.90
9965;DHT22;5023;53.554;9.964;2023-07-13T02:59:41;17.20;99.90
9965;DHT22;5023;53.554;9.964;2023-07-13T03:04:43;17.10;99.90
9965;DHT22;5023;53.554;9.964;2023-07-13T03:09:47;17.10;99.90
9965;DHT22;5023;53.554;9.964;2023-07-13T03:14:48;17.10;99.90
9965;DHT22;5023;53.554;9.964;2023-07-13T03:19:50;17.20;99.90
9965;DHT22;5023;53.554;9.964;2023-07-13T03:24:55;17.10;99.90
9965;DHT22;5023;53.554;9.964;2023-07-13T03:29:57;17.10;99.90
9965;DHT22;5023;53.554;9.964;2023-07-13T03:34:59;17.10;99.90
9965;DHT22;5023;53.554;9.964;2023-07-13T03:40:04;17.10;99.90
9965;DHT22;5023;53.554;9.964;2023-07-13T03:45:09;17.10;99.90
9965;DHT22;5023;53.554;9.964;2023-07-13T03:50:11;17.00;99.90
9965;DHT22;5023;53.554;9.964;2023-07-13T03:55:15;17.00;99.90
9965;DHT22;5023;53.554;9.964;2023-07-13T04:00:17;17.00;99.90
9965;DHT22;5023;53.554;9.964;2023-07-13T04:05:19;16.90;99.90
9965;DHT22;5023;53.554;9.964;2023-07-13T04:10:22;16.90;99.90
9965;DHT22;5023;53.554;9.964;2023-07-13T04:15:24;17.00;99.90
9965;DHT22;5023;53.554;9.964;2023-07-13T04:20:26;17.00;99.90
9965;DHT22;5023;53.554;9.964;2023-07-13T04:25:30;17.00;99.90
9965;DHT22;5023;53.554;9.964;2023-07-13T04:30:32;17.00;99.90
9965;DHT22;5023;53.554;9.964;2023-07-13T04:35:33;17.00;99.90
9965;DHT22;5023;53.554;9.964;2023-07-13T04:40:37;17.10;99.90
9965;DHT22;5023;53.554;9.964;2023-07-13T04:45:39;17.20;99.90
9965;DHT22;5023;53.554;9.964;2023-07-13T04:50:41;17.20;99.90
9965;DHT22;5023;53.554;9.964;2023-07-13T04:55:45;17.20;99.90
9965;DHT22;5023;53.554;9.964;2023-07-13T05:00:47;17.20;99.90
9965;DHT22;5023;53.554;9.964;2023-07-13T05:05:56;17.20;99.90
9965;DHT22;5023;53.554;9.964;2023-07-13T05:11:01;17.30;99.90
9965;DHT22;5023;53.554;9.964;2023-07-13T05:16:04;17.30;99.90
9965;DHT22;5023;53.554;9.964;2023-07-13T05:21:10;17.30;99.90
9965;DHT22;5023;53.554;9.964;2023-07-13T05:26:13;17.40;99.90
9965;DHT22;5023;53.554;9.964;2023-07-13T05:31:15;17.40;99.90
9965;DHT22;5023;53.554;9.964;2023-07-13T05:36:17;17.30;99.90
9965;DHT22;5023;53.554;9.964;2023-07-13T05:41:20;17.40;99.90
9965;DHT22;5023;53.554;9.964;2023-07-13T05:46:22;17.30;99.90
9965;DHT22;5023;53.554;9.964;2023-07-13T05:51:24;17.40;99.90
9965;DHT22;5023;53.554;9.964;2023-07-13T05:56:27;17.40;99.90
9965;DHT22;5023;53.554;9.964;2023-07-13T06:01:30;17.30;99.90
9965;DHT22;5023;53.554;9.964;2023-07-13T06:06:33;17.40;99.90
9965;DHT22;5023;53.554;9.964;2023-07-13T06:11:36;17.40;99.90
9965;DHT22;5023;53.554;9.964;2023-07-13T06:16:40;17.40;99.90
9965;DHT22;5023;53.554;9.964;2023-07-13T06:21:42;17.40;99.90
9965;DHT22;5023;53.554;9.964;2023-07-13T06:26:45;17.30;99.90
9965;DHT22;5023;53.554;9.964;2023-07-13T06:31:47;17.40;99.90
9965;DHT22;5023;53.554;9.964;2023-07-13T06:36:49;17.50;99.90
9965;DHT22;5023;53.554;9.964;2023-07-13T06:41:52;17.50;99.90
9965;DHT22;5023;53.554;9.964;2023-07-13T06:46:54;17.50;99.90
9965;DHT22;5023;53.554;9.964;2023-07-13T06:51:56;17.40;99.90
9965;DHT22;5023;53.554;9.964;2023-07-13T06:56:59;17.60;99.90
9965;DHT22;5023;53.554;9.964;2023-07-13T07:02:01;17.70;99.90
9965;DHT22;5023;53.554;9.964;2023-07-13T07:07:03;17.60;99.90
9965;DHT22;5023;53.554;9.964;2023-07-13T07:12:07;17.70;99.90
9965;DHT22;5023;53.554;9.964;2023-07-13T07:17:09;17.70;99.90
9965;DHT22;5023;53.554;9.964;2023-07-13T07:22:11;17.80;99.90
9965;DHT22;5023;53.554;9.964;2023-07-13T07:27:15;17.90;99.90
9965;DHT22;5023;53.554;9.964;2023-07-13T07:32:19;18.10;99.90
9965;DHT22;5023;53.554;9.964;2023-07-13T07:37:21;18.20;99.90
9965;DHT22;5023;53.554;9.964;2023-07-13T07:42:24;18.40;99.90
9965;DHT22;5023;53.554;9.964;2023-07-13T07:47:26;18.60;99.90
9965;DHT22;5023;53.554;9.964;2023-07-13T07:52:28;18.60;99.90
9965;DHT22;5023;53.554;9.964;2023-07-13T07:57:31;18.90;99.90
9965;DHT22;5023;53.554;9.964;2023-07-13T08:02:33;19.10;99.90
9965;DHT22;5023;53.554;9.964;2023-07-13T08:07:36;19.20;99.90
9965;DHT22;5023;53.554;9.964;2023-07-13T08:12:40;19.40;99.90
9965;DHT22;5023;53.554;9.964;2023-07-13T08:17:42;19.50;99.90
9965;DHT22;5023;53.554;9.964;2023-07-13T08:22:44;19.60;99.90
9965;DHT22;5023;53.554;9.964;2023-07-13T08:27:49;19.80;99.90
9965;DHT22;5023;53.554;9.964;2023-07-13T08:32:51;19.80;99.90
9965;DHT22;5023;53.554;9.964;2023-07-13T08:37:52;19.90;99.90
9965;DHT22;5023;53.554;9.964;2023-07-13T08:42:58;19.90;99.90
9965;DHT22;5023;53.554;9.964;2023-07-13T08:48:04;19.80;99.90
9965;DHT22;5023;53.554;9.964;2023-07-13T08:53:07;19.80;99.90
9965;DHT22;5023;53.554;9.964;2023-07-13T08:58:15;20.10;99.90
9965;DHT22;5023;53.554;9.964;2023-07-13T09:03:20;20.10;99.90
9965;DHT22;5023;53.554;9.964;2023-07-13T09:08:36;20.10;99.90
9965;DHT22;5023;53.554;9.964;2023-07-13T09:13:52;20.30;99.90
9965;DHT22;5023;53.554;9.964;2023-07-13T09:19:02;20.50;99.90
9965;DHT22;5023;53.554;9.964;2023-07-13T09:24:29;20.50;99.90
9965;DHT22;5023;53.554;9.964;2023-07-13T09:29:34;20.50;99.90
9965;DHT22;5023;53.554;9.964;2023-07-13T09:34:36;20.60;99.90
9965;DHT22;5023;53.554;9.964;2023-07-13T09:39:40;20.70;99.90
9965;DHT22;5023;53.554;9.964;2023-07-13T09:44:54;20.80;99.90
9965;DHT22;5023;53.554;9.964;2023-07-13T09:49:57;20.90;99.90
9965;DHT22;5023;53.554;9.964;2023-07-13T09:54:59;21.00;99.90
9965;DHT22;5023;53.554;9.964;2023-07-13T10:00:05;21.30;99.90
9965;DHT22;5023;53.554;9.964;2023-07-13T10:05:14;21.50;99.90
9965;DHT22;5023;53.554;9.964;2023-07-13T10:10:19;21.30;99.90
9965;DHT22;5023;53.554;9.964;2023-07-13T10:15:25;21.20;99.90
9965;DHT22;5023;53.554;9.964;2023-07-13T10:20:27;21.20;99.90
9965;DHT22;5023;53.554;9.964;2023-07-13T10:25:32;21.50;99.90
9965;DHT22;5023;53.554;9.964;2023-07-13T10:30:40;21.60;99.90
9965;DHT22;5023;53.554;9.964;2023-07-13T10:35:44;21.50;99.90
9965;DHT22;5023;53.554;9.964;2023-07-13T10:40:52;21.50;99.90
9965;DHT22;5023;53.554;9.964;2023-07-13T10:45:59;21.70;99.90
9965;DHT22;5023;53.554;9.964;2023-07-13T10:51:03;21.60;99.90
9965;DHT22;5023;53.554;9.964;2023-07-13T10:56:22;21.80;99.90
9965;DHT22;5023;53.554;9.964;2023-07-13T11:01:25;21.90;99.90
9965;DHT22;5023;53.554;9.964;2023-07-13T11:06:41;22.00;99.90
9965;DHT22;5023;53.554;9.964;2023-07-13T11:11:45;22.00;99.90
9965;DHT22;5023;53.554;9.964;2023-07-13T11:16:48;22.20;99.90
9965;DHT22;5023;53.554;9.964;2023-07-13T11:22:11;22.50;99.90
9965;DHT22;5023;53.554;9.964;2023-07-13T11:27:22;22.50;99.90
9965;DHT22;5023;53.554;9.964;2023-07-13T11:32:30;22.90;99.90
9965;DHT22;5023;53.554;9.964;2023-07-13T11:37:33;23.30;99.90
9965;DHT22;5023;53.554;9.964;2023-07-13T11:42:35;23.70;99.90
9965;DHT22;5023;53.554;9.964;2023-07-13T11:47:42;23.60;99.90
9965;DHT22;5023;53.554;9.964;2023-07-13T11:52:44;23.20;99.90
9965;DHT22;5023;53.554;9.964;2023-07-13T11:57:50;23.60;99.90
9965;DHT22;5023;53.554;9.964;2023-07-13T12:02:56;23.60;99.90
9965;DHT22;5023;53.554;9.964;2023-07-13T12:07:59;23.20;99.90
9965;DHT22;5023;53.554;9.964;2023-07-13T12:13:09;23.20;99.90
9965;DHT22;5023;53.554;9.964;2023-07-13T12:18:17;23.00;99.90
9965;DHT22;5023;53.554;9.964;2023-07-13T12:23:23;22.60;99.90
9965;DHT22;5023;53.554;9.964;2023-07-13T12:28:32;21.30;99.90
9965;DHT22;5023;53.554;9.964;2023-07-13T12:33:39;20.10;99.90
9965;DHT22;5023;53.554;9.964;2023-07-13T12:38:45;19.50;99.90
9965;DHT22;5023;53.554;9.964;2023-07-13T12:43:48;19.50;99.90
9965;DHT22;5023;53.554;9.964;2023-07-13T12:48:53;19.60;99.90
9965;DHT22;5023;53.554;9.964;2023-07-13T12:53:59;19.90;99.90
9965;DHT22;5023;53.554;9.964;2023-07-13T12:59:16;19.50;99.90
9965;DHT22;5023;53.554;9.964;2023-07-13T13:04:20;19.40;99.90
9965;DHT22;5023;53.554;9.964;2023-07-13T13:09:36;19.30;99.90
9965;DHT22;5023;53.554;9.964;2023-07-13T13:14:38;19.00;99.90
9965;DHT22;5023;53.554;9.964;2023-07-13T13:19:41;19.00;99.90
9965;DHT22;5023;53.554;9.964;2023-07-13T13:24:43;19.00;99.90
9965;DHT22;5023;53.554;9.964;2023-07-13T13:29:46;19.40;99.90
9965;DHT22;5023;53.554;9.964;2023-07-13T13:34:49;19.50;99.90
9965;DHT22;5023;53.554;9.964;2023-07-13T13:39:52;19.50;99.90
9965;DHT22;5023;53.554;9.964;2023-07-13T13:44:55;19.60;99.90
9965;DHT22;5023;53.554;9.964;2023-07-13T13:49:59;19.70;99.90
9965;DHT22;5023;53.554;9.964;2023-07-13T13:55:01;19.80;99.90
9965;DHT22;5023;53.554;9.964;2023-07-13T14:00:04;19.90;99.90
9965;DHT22;5023;53.554;9.964;2023-07-13T14:05:12;19.90;99.90
9965;DHT22;5023;53.554;9.964;2023-07-13T14:10:16;19.80;99.90
9965;DHT22;5023;53.554;9.964;2023-07-13T14:15:21;20.10;99.90
9965;DHT22;5023;53.554;9.964;2023-07-13T14:20:25;20.60;99.90
9965;DHT22;5023;53.554;9.964;2023-07-13T14:25:27;20.60;99.90
9965;DHT22;5023;53.554;9.964;2023-07-13T14:30:29;20.50;99.90
9965;DHT22;5023;53.554;9.964;2023-07-13T14:35:33;20.50;99.90
9965;DHT22;5023;53.554;9.964;2023-07-13T14:40:35;20.70;99.90
9965;DHT22;5023;53.554;9.964;2023-07-13T14:45:39;21.20;99.90
9965;DHT22;5023;53.554;9.964;2023-07-13T14:50:43;21.00;99.90
9965;DHT22;5023;53.554;9.964;2023-07-13T14:55:46;20.80;99.90
9965;DHT22;5023;53.554;9.964;2023-07-13T15:00:48;20.60;99.90
9965;DHT22;5023;53.554;9.964;2023-07-13T15:05:52;20.60;99.90
9965;DHT22;5023;53.554;9.964;2023-07-13T15:10:54;20.60;99.90
9965;DHT22;5023;53.554;9.964;2023-07-13T15:15:58;20.70;99.90
9965;DHT22;5023;53.554;9.964;2023-07-13T15:21:01;21.20;99.90
9965;DHT22;5023;53.554;9.964;2023-07-13T15:26:04;20.90;99.90
9965;DHT22;5023;53.554;9.964;2023-07-13T15:31:18;20.70;99.90
9965;DHT22;5023;53.554;9.964;2023-07-13T15:36:22;20.70;99.90
9965;DHT22;5023;53.554;9.964;2023-07-13T15:41:28;20.70;99.90
9965;DHT22;5023;53.554;9.964;2023-07-13T15:46:30;20.60;99.90
9965;DHT22;5023;53.554;9.964;2023-07-13T15:51:34;20.50;99.90
9965;DHT22;5023;53.554;9.964;2023-07-13T15:56:37;20.60;99.90
9965;DHT22;5023;53.554;9.964;2023-07-13T16:01:41;20.70;99.90
9965;DHT22;5023;53.554;9.964;2023-07-13T16:06:45;20.70;99.90
9965;DHT22;5023;53.554;9.964;2023-07-13T16:11:47;20.80;99.90
9965;DHT22;5023;53.554;9.964;2023-07-13T16:16:50;20.60;99.90
9965;DHT22;5023;53.554;9.964;2023-07-13T16:21:57;20.60;99.90
9965;DHT22;5023;53.554;9.964;2023-07-13T16:27:00;20.50;99.90
9965;DHT22;5023;53.554;9.964;2023-07-13T16:32:06;20.40;99.90
9965;DHT22;5023;53.554;9.964;2023-07-13T16:37:14;20.40;99.90
9965;DHT22;5023;53.554;9.964;2023-07-13T16:42:17;20.30;99.90
9965;DHT22;5023;53.554;9.964;2023-07-13T16:47:19;20.10;99.90
9965;DHT22;5023;53.554;9.964;2023-07-13T16:52:23;20.10;99.90
9965;DHT22;5023;53.554;9.964;2023-07-13T16:57:32;20.00;99.90
9965;DHT22;5023;53.554;9.964;2023-07-13T17:02:38;20.00;99.90
9965;DHT22;5023;53.554;9.964;2023-07-13T17:07:41;19.90;99.90
9965;DHT22;5023;53.554;9.964;2023-07-13T17:12:46;20.00;99.90
9965;DHT22;5023;53.554;9.964;2023-07-13T17:17:49;20.00;99.90
9965;DHT22;5023;53.554;9.964;2023-07-13T17:22:53;20.00;99.90
9965;DHT22;5023;53.554;9.964;2023-07-13T17:27:56;20.00;99.90
9965;DHT22;5023;53.554;9.964;2023-07-13T17:32:58;19.80;99.90
9965;DHT22;5023;53.554;9.964;2023-07-13T17:38:03;19.80;99.90
9965;DHT22;5023;53.554;9.964;2023-07-13T17:43:05;19.60;99.90
9965;DHT22;5023;53.554;9.964;2023-07-13T17:48:09;19.60;99.90
9965;DHT22;5023;53.554;9.964;2023-07-13T17:53:16;19.60;99.90
9965;DHT22;5023;53.554;9.964;2023-07-13T17:58:18;19.50;99.90
9965;DHT22;5023;53.554;9.964;2023-07-13T18:03:23;19.50;99.90
9965;DHT22;5023;53.554;9.964;2023-07-13T18:08:33;19.40;99.90
9965;DHT22;5023;53.554;9.964;2023-07-13T18:13:35;19.40;99.90
9965;DHT22;5023;53.554;9.964;2023-07-13T18:18:40;19.40;99.90
9965;DHT22;5023;53.554;9.964;2023-07-13T18:23:44;19.40;99.90
9965;DHT22;5023;53.554;9.964;2023-07-13T18:28:46;19.50;99.90
9965;DHT22;5023;53.554;9.964;2023-07-13T18:33:50;19.50;99.90
9965;DHT22;5023;53.554;9.964;2023-07-13T18:38:54;19.40;99.90
9965;DHT22;5023;53.554;9.964;2023-07-13T18:43:56;19.50;99.90
9965;DHT22;5023;53.554;9.964;2023-07-13T18:48:59;19.40;99.90
9965;DHT22;5023;53.554;9.964;2023-07-13T18:54:05;19.30;99.90
9965;DHT22;5023;53.554;9.964;2023-07-13T18:59:07;19.20;99.90
9965;DHT22;5023;53.554;9.964;2023-07-13T19:04:26;19.10;99.90
9965;DHT22;5023;53.554;9.964;2023-07-13T19:09:33;18.80;99.90
9965;DHT22;5023;53.554;9.964;2023-07-13T19:14:35;18.60;99.90
9965;DHT22;5023;53.554;9.964;2023-07-13T19:19:37;18.40;99.90
9965;DHT22;5023;53.554;9.964;2023-07-13T19:24:41;18.30;99.90
9965;DHT22;5023;53.554;9.964;2023-07-13T19:29:43;18.20;99.90
9965;DHT22;5023;53.554;9.964;2023-07-13T19:34:45;18.10;99.90
9965;DHT22;5023;53.554;9.964;2023-07-13T19:39:48;18.20;99.90
9965;DHT22;5023;53.554;9.964;2023-07-13T19:44:55;18.10;99.90
9965;DHT22;5023;53.554;9.964;2023-07-13T19:49:57;18.20;99.90
9965;DHT22;5023;53.554;9.964;2023-07-13T19:55:04;18.10;99.90
9965;DHT22;5023;53.554;9.964;2023-07-13T20:00:16;18.10;99.90
9965;DHT22;5023;53.554;9.964;2023-07-13T20:05:20;18.00;99.90
9965;DHT22;5023;53.554;9.964;2023-07-13T20:10:26;17.90;99.90
9965;DHT22;5023;53.554;9.964;2023-07-13T20:15:31;17.80;99.90
9965;DHT22;5023;53.554;9.964;2023-07-13T20:20:35;17.70;99.90
9965;DHT22;5023;53.554;9.964;2023-07-13T20:25:42;17.60;99.90
9965;DHT22;5023;53.554;9.964;2023-07-13T20:30:47;17.60;99.90
9965;DHT22;5023;53.554;9.964;2023-07-13T20:35:50;17.60;99.90
9965;DHT22;5023;53.554;9.964;2023-07-13T20:40:54;17.50;99.90
9965;DHT22;5023;53.554;9.964;2023-07-13T20:45:57;17.40;99.90
9965;DHT22;5023;53.554;9.964;2023-07-13T20:51:00;17.30;99.90
9965;DHT22;5023;53.554;9.964;2023-07-13T20:56:11;17.40;99.90
9965;DHT22;5023;53.554;9.964;2023-07-13T21:01:15;17.40;99.90
9965;DHT22;5023;53.554;9.964;2023-07-13T21:06:18;17.30;99.90
9965;DHT22;5023;53.554;9.964;2023-07-13T21:11:22;17.30;99.90
9965;DHT22;5023;53.554;9.964;2023-07-13T21:16:26;17.30;99.90
9965;DHT22;5023;53.554;9.964;2023-07-13T21:21:29;17.30;99.90
9965;DHT22;5023;53.554;9.964;2023-07-13T21:26:32;17.20;99.90
9965;DHT22;5023;53.554;9.964;2023-07-13T21:31:35;17.10;99.90
9965;DHT22;5023;53.554;9.964;2023-07-13T21:36:37;17.10;99.90
9965;DHT22;5023;53.554;9.964;2023-07-13T21:41:41;17.00;99.90
9965;DHT22;5023;53.554;9.964;2023-07-13T21:46:44;17.00;99.90
9965;DHT22;5023;53.554;9.964;2023-07-13T21:51:46;17.00;99.90
9965;DHT22;5023;53.554;9.964;2023-07-13T21:56:49;17.00;99.90
9965;DHT22;5023;53.554;9.964;2023-07-13T22:01:51;16.90;99.90
9965;DHT22;5023;53.554;9.964;2023-07-13T22:06:53;16.90;99.90
9965;DHT22;5023;53.554;9.964;2023-07-13T22:11:58;16.90;99.90
9965;DHT22;5023;53.554;9.964;2023-07-13T22:17:00;16.90;99.90
9965;DHT22;5023;53.554;9.964;2023-07-13T22:22:02;16.80;99.90
9965;DHT22;5023;53.554;9.964;2023-07-13T22:27:09;16.90;99.90
9965;DHT22;5023;53.554;9.964;2023-07-13T22:32:11;16.90;99.90
9965;DHT22;5023;53.554;9.964;2023-07-13T22:37:13;16.90;99.90
9965;DHT22;5023;53.554;9.964;2023-07-13T22:42:16;16.90;99.90
9965;DHT22;5023;53.554;9.964;2023-07-13T22:47:19;16.80;99.90
9965;DHT22;5023;53.554;9.964;2023-07-13T22:52:22;16.70;99.90
9965;DHT22;5023;53.554;9.964;2023-07-13T22:57:25;16.70;99.90
9965;DHT22;5023;53.554;9.964;2023-07-13T23:02:27;16.70;99.90
9965;DHT22;5023;53.554;9.964;2023-07-13T23:07:29;16.70;99.90
9965;DHT22;5023;53.554;9.964;2023-07-13T23:12:33;16.70;99.90
9965;DHT22;5023;53.554;9.964;2023-07-13T23:17:36;16.70;99.90
9965;DHT22;5023;53.554;9.964;2023-07-13T23:22:37;16.70;99.90
9965;DHT22;5023;53.554;9.964;2023-07-13T23:27:41;16.70;99.90
9965;DHT22;5023;53.554;9.964;2023-07-13T23:32:43;16.70;99.90
9965;DHT22;5023;53.554;9.964;2023-07-13T23:37:46;16.70;99.90
9965;DHT22;5023;53.554;9.964;2023-07-13T23:42:50;16.70;99.90
9965;DHT22;5023;53.554;9.964;2023-07-13T23:47:55;16.60;99.90
9965;DHT22;5023;53.554;9.964;2023-07-13T23:52:58;16.70;99.90
9965;DHT22;5023;53.554;9.964;2023-07-13T23:58:03;16.70;99.90
